createdAt,value
2022-12-03T00:01:43.527Z,101244.28
2022-12-03T00:04:10.217Z,101240.75
2022-12-03T00:06:36.977Z,101245.00
2022-12-03T00:09:04.671Z,101233.31
2022-12-03T00:11:31.525Z,101239.38
2022-12-03T00:13:58.192Z,101234.28
2022-12-03T00:16:24.847Z,101234.88
2022-12-03T00:18:51.549Z,101220.16
2022-12-03T00:21:18.296Z,101229.88
2022-12-03T00:23:45.137Z,101231.09
2022-12-03T00:26:11.766Z,101230.63
2022-12-03T00:28:38.358Z,101228.69
2022-12-03T00:31:05.248Z,101215.75
2022-12-03T00:33:31.818Z,101219.50
2022-12-03T00:35:58.529Z,101221.34
2022-12-03T00:38:25.348Z,101217.44
2022-12-03T00:40:52.198Z,101225.22
2022-12-03T00:43:18.790Z,101209.41
2022-12-03T00:45:45.441Z,101209.03
2022-12-03T00:48:12.036Z,101217.69
2022-12-03T00:50:38.649Z,101215.25
2022-12-03T00:53:05.394Z,101216.94
2022-12-03T00:55:32.066Z,101217.94
2022-12-03T00:57:58.704Z,101217.44
2022-12-03T01:00:25.492Z,101216.94
2022-12-03T01:02:52.785Z,101230.56
2022-12-03T01:05:20.454Z,101221.81
2022-12-03T01:07:47.564Z,101229.09
2022-12-03T01:10:14.355Z,101217.06
2022-12-03T01:12:41.138Z,101214.59
2022-12-03T01:15:08.490Z,101218.66
2022-12-03T01:17:35.130Z,101218.66
2022-12-03T01:20:02.116Z,101216.78
2022-12-03T01:22:28.938Z,101214.63
2022-12-03T01:24:55.839Z,101201.84
2022-12-03T01:27:22.509Z,101199.19
2022-12-03T01:29:49.348Z,101201.09
2022-12-03T01:32:19.755Z,101203.78
2022-12-03T01:34:51.315Z,101213.66
2022-12-03T01:37:19.615Z,101217.69
2022-12-03T01:39:46.444Z,101217.25
2022-12-03T01:42:17.394Z,101213.81
2022-12-03T01:44:45.625Z,101211.13
2022-12-03T01:47:16.192Z,101217.13
2022-12-03T01:49:50.846Z,101214.78
2022-12-03T01:52:21.344Z,101224.16
2022-12-03T01:54:52.684Z,101220.63
2022-12-03T01:57:24.974Z,101216.47
2022-12-03T01:59:52.785Z,101212.94
2022-12-03T02:02:30.680Z,101210.53
2022-12-03T02:04:58.260Z,101220.25
2022-12-03T02:07:34.244Z,101212.47
2022-12-03T02:10:04.186Z,101208.81
2022-12-03T02:12:36.299Z,101197.72
2022-12-03T02:15:05.045Z,101213.56
2022-12-03T02:17:32.330Z,101196.00
2022-12-03T02:20:00.061Z,101201.97
2022-12-03T02:22:26.729Z,101198.94
2022-12-03T02:24:59.695Z,101199.91
2022-12-03T02:27:28.659Z,101192.59
2022-12-03T02:29:55.849Z,101200.13
2022-12-03T02:32:23.623Z,101190.41
2022-12-03T02:34:51.435Z,101193.09
2022-12-03T02:37:30.867Z,101187.50
2022-12-03T02:40:02.246Z,101181.50
2022-12-03T02:42:36.005Z,101178.38
2022-12-03T02:45:05.912Z,101190.78
2022-12-03T02:47:39.033Z,101183.00
2022-12-03T02:50:06.194Z,101182.00
2022-12-03T02:52:32.831Z,101185.53
2022-12-03T02:55:00.153Z,101179.44
2022-12-03T02:57:26.849Z,101169.91
2022-12-03T02:59:53.829Z,101175.81
2022-12-03T03:02:20.762Z,101170.69
2022-12-03T03:04:48.001Z,101180.31
2022-12-03T03:07:15.116Z,101170.31
2022-12-03T03:09:42.065Z,101177.38
2022-12-03T03:12:10.269Z,101174.09
2022-12-03T03:14:37.003Z,101171.03
2022-12-03T03:17:03.795Z,101162.50
2022-12-03T03:19:30.715Z,101165.69
2022-12-03T03:21:57.289Z,101164.22
2022-12-03T03:24:24.535Z,101166.78
2022-12-03T03:26:51.304Z,101171.13
2022-12-03T03:29:18.533Z,101173.81
2022-12-03T03:31:46.566Z,101178.31
2022-12-03T03:34:14.424Z,101160.16
2022-12-03T03:36:41.460Z,101162.75
2022-12-03T03:39:08.599Z,101171.41
2022-12-03T03:41:36.172Z,101162.00
2022-12-03T03:44:06.401Z,101173.13
2022-12-03T03:46:34.068Z,101180.28
2022-12-03T03:49:02.376Z,101155.41
2022-12-03T03:51:29.417Z,101169.53
2022-12-03T03:53:56.241Z,101156.25
2022-12-03T03:56:23.179Z,101160.72
2022-12-03T03:58:49.821Z,101170.78
2022-12-03T04:01:18.359Z,101163.19
2022-12-03T04:03:45.258Z,101158.94
2022-12-03T04:06:11.846Z,101163.78
2022-12-03T04:08:38.610Z,101162.06
2022-12-03T04:11:23.778Z,101161.22
2022-12-03T04:13:50.436Z,101160.38
2022-12-03T04:16:17.022Z,101158.94
2022-12-03T04:18:43.599Z,101161.94
2022-12-03T04:21:29.353Z,101160.81
2022-12-03T04:23:56.061Z,101146.94
2022-12-03T04:26:41.476Z,101151.63
2022-12-03T04:29:08.146Z,101150.53
2022-12-03T04:31:53.618Z,101148.81
2022-12-03T04:34:38.952Z,101144.69
2022-12-03T04:37:06.122Z,101147.81
2022-12-03T04:39:33.493Z,101160.38
2022-12-03T04:42:00.281Z,101156.34
2022-12-03T04:44:33.301Z,101145.31
2022-12-03T04:47:00.830Z,101145.31
2022-12-03T04:49:27.505Z,101149.25
2022-12-03T04:51:54.271Z,101127.09
2022-12-03T04:54:21.038Z,101152.03
2022-12-03T04:56:47.760Z,101148.53
2022-12-03T04:59:16.469Z,101146.56
2022-12-03T05:01:43.903Z,101147.91
2022-12-03T05:04:11.474Z,101140.91
2022-12-03T05:06:38.198Z,101135.25
2022-12-03T05:09:05.354Z,101148.66
2022-12-03T05:11:32.309Z,101156.97
2022-12-03T05:13:58.916Z,101138.69
2022-12-03T05:16:25.568Z,101146.03
2022-12-03T05:18:52.410Z,101146.31
2022-12-03T05:21:19.108Z,101141.31
2022-12-03T05:23:45.841Z,101134.22
2022-12-03T05:26:12.572Z,101147.13
2022-12-03T05:28:39.244Z,101138.50
2022-12-03T05:31:06.138Z,101136.91
2022-12-03T05:33:33.178Z,101129.50
2022-12-03T05:35:59.887Z,101130.47
2022-12-03T05:38:27.189Z,101141.56
2022-12-03T05:40:53.886Z,101140.38
2022-12-03T05:43:20.524Z,101142.22
2022-12-03T05:45:47.315Z,101136.25
2022-12-03T05:48:16.089Z,101146.84
2022-12-03T05:50:44.646Z,101144.31
2022-12-03T05:53:11.953Z,101143.59
2022-12-03T05:55:38.841Z,101139.47
2022-12-03T05:58:05.851Z,101152.38
2022-12-03T06:00:42.469Z,101144.72
2022-12-03T06:03:10.518Z,101139.91
2022-12-03T06:05:37.512Z,101147.31
2022-12-03T06:08:04.347Z,101133.56
2022-12-03T06:10:31.144Z,101130.41
2022-12-03T06:12:57.819Z,101137.22
2022-12-03T06:15:24.764Z,101143.69
2022-12-03T06:17:51.471Z,101140.41
2022-12-03T06:20:19.991Z,101132.59
2022-12-03T06:22:47.625Z,101116.56
2022-12-03T06:25:15.006Z,101133.84
2022-12-03T06:27:41.623Z,101138.59
2022-12-03T06:30:09.029Z,101140.41
2022-12-03T06:32:35.934Z,101143.56
2022-12-03T06:35:03.129Z,101138.91
2022-12-03T06:37:29.877Z,101125.28
2022-12-03T06:39:56.531Z,101134.31
2022-12-03T06:42:23.212Z,101142.59
2022-12-03T06:44:49.776Z,101136.78
2022-12-03T06:47:16.428Z,101139.94
2022-12-03T06:49:43.151Z,101133.34
2022-12-03T06:52:09.778Z,101125.44
2022-12-03T06:54:36.388Z,101145.50
2022-12-03T06:57:03.160Z,101145.50
2022-12-03T06:59:29.899Z,101146.34
2022-12-03T07:01:56.560Z,101149.13
2022-12-03T07:04:23.272Z,101136.97
2022-12-03T07:06:49.988Z,101130.16
2022-12-03T07:09:17.295Z,101141.59
2022-12-03T07:11:44.141Z,101124.19
2022-12-03T07:14:13.845Z,101118.31
2022-12-03T07:16:43.112Z,101131.34
2022-12-03T07:19:10.923Z,101133.66
2022-12-03T07:21:38.201Z,101130.56
2022-12-03T07:24:05.866Z,101134.31
2022-12-03T07:26:32.897Z,101128.25
2022-12-03T07:28:59.743Z,101124.47
2022-12-03T07:31:26.480Z,101129.31
2022-12-03T07:33:53.259Z,101139.78
2022-12-03T07:36:19.886Z,101138.66
2022-12-03T07:38:46.439Z,101129.31
2022-12-03T07:41:13.295Z,101133.91
2022-12-03T07:43:39.928Z,101133.91
2022-12-03T07:46:06.742Z,101132.19
2022-12-03T07:48:33.376Z,101138.34
2022-12-03T07:50:59.982Z,101134.31
2022-12-03T07:53:26.547Z,101133.91
2022-12-03T07:55:53.261Z,101133.53
2022-12-03T07:58:19.840Z,101128.16
2022-12-03T08:00:46.419Z,101123.31
2022-12-03T08:03:13.227Z,101130.69
2022-12-03T08:05:39.828Z,101124.22
2022-12-03T08:08:06.535Z,101122.00
2022-12-03T08:10:33.244Z,101126.75
2022-12-03T08:13:00.131Z,101126.94
2022-12-03T08:15:32.377Z,101132.91
2022-12-03T08:18:10.128Z,101129.81
2022-12-03T08:20:40.308Z,101122.47
2022-12-03T08:23:12.861Z,101122.66
2022-12-03T08:25:40.600Z,101130.72
2022-12-03T08:28:16.936Z,101130.88
2022-12-03T08:30:45.216Z,101129.47
2022-12-03T08:33:33.959Z,101125.34
2022-12-03T08:36:02.573Z,101122.97
2022-12-03T08:38:30.959Z,101127.38
2022-12-03T08:40:57.818Z,101108.69
2022-12-03T08:43:27.097Z,101115.25
2022-12-03T08:45:55.492Z,101102.78
2022-12-03T08:48:32.725Z,101108.75
2022-12-03T08:51:11.192Z,101101.66
2022-12-03T08:53:45.937Z,101110.44
2022-12-03T08:56:30.461Z,101109.03
2022-12-03T08:59:00.835Z,101096.28
2022-12-03T09:01:31.881Z,101119.00
2022-12-03T09:04:17.478Z,101105.16
2022-12-03T09:06:44.179Z,101102.03
2022-12-03T09:09:10.864Z,101085.03
2022-12-03T09:11:37.767Z,101092.13
2022-12-03T09:14:04.807Z,101100.19
2022-12-03T09:16:32.022Z,101100.63
2022-12-03T09:18:58.813Z,101107.56
2022-12-03T09:21:25.394Z,101103.47
2022-12-03T09:23:52.025Z,101103.47
2022-12-03T09:26:18.602Z,101086.50
2022-12-03T09:28:46.470Z,101100.53
2022-12-03T09:31:13.026Z,101100.53
2022-12-03T09:33:39.839Z,101088.75
2022-12-03T09:36:06.595Z,101095.44
2022-12-03T09:38:33.113Z,101077.75
2022-12-03T09:41:00.183Z,101080.44
2022-12-03T09:43:49.517Z,101077.63
2022-12-03T09:46:15.366Z,101080.75
2022-12-03T09:48:42.042Z,101072.81
2022-12-03T09:51:10.816Z,101072.97
2022-12-03T09:53:41.382Z,101069.72
2022-12-03T09:56:17.776Z,101080.03
2022-12-03T09:58:44.419Z,101070.56
2022-12-03T10:01:15.118Z,101069.41
2022-12-03T10:03:51.720Z,101056.25
2022-12-03T10:06:23.414Z,101057.53
2022-12-03T10:08:53.538Z,101052.72
2022-12-03T10:11:22.778Z,101037.28
2022-12-03T10:13:50.353Z,101039.97
2022-12-03T10:16:20.909Z,101035.56
2022-12-03T10:18:51.749Z,101030.88
2022-12-03T10:21:20.023Z,101043.78
2022-12-03T10:23:55.133Z,101030.84
2022-12-03T10:26:40.652Z,101020.06
2022-12-03T10:29:18.577Z,101029.78
2022-12-03T10:31:45.787Z,101014.44
2022-12-03T10:34:12.338Z,101027.03
2022-12-03T10:36:38.954Z,101022.19
2022-12-03T10:39:12.913Z,101022.06
2022-12-03T10:41:41.314Z,101023.75
2022-12-03T10:44:16.112Z,101025.72
2022-12-03T10:46:43.282Z,101036.50
2022-12-03T10:49:16.163Z,101018.50
2022-12-03T10:51:43.737Z,101019.78
2022-12-03T10:54:21.252Z,101026.03
2022-12-03T10:56:49.356Z,101022.56
2022-12-03T10:59:22.786Z,101007.00
2022-12-03T11:01:50.456Z,101019.19
2022-12-03T11:04:47.770Z,101023.03
2022-12-03T11:07:16.817Z,101014.97
2022-12-03T11:09:45.864Z,101033.97
2022-12-03T11:12:21.453Z,101003.59
2022-12-03T11:14:51.650Z,101008.41
2022-12-03T11:17:41.727Z,101015.19
2022-12-03T11:20:11.161Z,101017.88
2022-12-03T11:22:40.751Z,101014.22
2022-12-03T11:25:28.161Z,101014.44
2022-12-03T11:28:13.054Z,101010.59
2022-12-03T11:30:48.877Z,101010.31
2022-12-03T11:33:36.313Z,101021.31
2022-12-03T11:36:02.933Z,101010.78
2022-12-03T11:38:38.518Z,100997.63
2022-12-03T11:41:17.308Z,101007.72
2022-12-03T11:43:53.213Z,101005.13
2022-12-03T11:46:25.830Z,101004.59
2022-12-03T11:48:54.846Z,100980.09
2022-12-03T11:51:24.274Z,100992.41
2022-12-03T11:53:53.510Z,100987.03
2022-12-03T11:56:25.063Z,100994.41
2022-12-03T11:58:59.903Z,100992.75
2022-12-03T12:01:38.623Z,100990.75
2022-12-03T12:04:06.918Z,100966.84
2022-12-03T12:06:47.453Z,100974.56
2022-12-03T12:09:50.749Z,100976.25
2022-12-03T12:12:27.112Z,100971.31
2022-12-03T12:14:53.818Z,100974.59
2022-12-03T12:17:32.117Z,100965.28
2022-12-03T12:20:25.021Z,100969.28
2022-12-03T12:22:53.716Z,100972.28
2022-12-03T12:25:40.278Z,100965.31
2022-12-03T12:28:07.546Z,100959.66
2022-12-03T12:30:34.390Z,100965.06
2022-12-03T12:33:23.521Z,100962.06
2022-12-03T12:35:51.394Z,100957.94
2022-12-03T12:38:21.221Z,100964.34
2022-12-03T12:40:50.345Z,100949.16
2022-12-03T12:43:25.539Z,100949.50
2022-12-03T12:45:57.161Z,100951.75
2022-12-03T12:48:35.397Z,100944.06
2022-12-03T12:51:11.368Z,100956.06
2022-12-03T12:53:39.726Z,100960.75
2022-12-03T12:56:31.740Z,100966.03
2022-12-03T12:59:17.214Z,100941.09
2022-12-03T13:01:45.647Z,100940.78
2022-12-03T13:04:21.536Z,100950.72
2022-12-03T13:06:52.938Z,100939.38
2022-12-03T13:09:27.035Z,100949.72
2022-12-03T13:12:04.133Z,100944.19
2022-12-03T13:14:33.177Z,100941.38
2022-12-03T13:17:01.183Z,100937.00
2022-12-03T13:19:30.776Z,100940.13
2022-12-03T13:22:01.875Z,100944.38
2022-12-03T13:24:35.886Z,100924.41
2022-12-03T13:27:23.483Z,100938.84
2022-12-03T13:30:01.025Z,100917.63
2022-12-03T13:32:31.865Z,100926.94
2022-12-03T13:35:06.614Z,100934.00
2022-12-03T13:37:33.628Z,100926.50
2022-12-03T13:40:19.141Z,100939.66
2022-12-03T13:42:46.625Z,100929.19
2022-12-03T13:45:16.171Z,100931.56
2022-12-03T13:47:47.492Z,100937.66
2022-12-03T13:50:38.991Z,100933.97
2022-12-03T13:53:11.847Z,100929.41
2022-12-03T13:55:42.977Z,100932.09
2022-12-03T13:58:09.623Z,100920.09
2022-12-03T14:00:36.591Z,100926.34
2022-12-03T14:03:03.399Z,100924.03
2022-12-03T14:05:30.158Z,100916.81
2022-12-03T14:08:02.134Z,100930.81
2022-12-03T14:10:29.832Z,100926.88
2022-12-03T14:12:56.777Z,100925.03
2022-12-03T14:15:23.431Z,100926.72
2022-12-03T14:17:50.057Z,100932.81
2022-12-03T14:20:16.926Z,100914.09
2022-12-03T14:22:43.554Z,100924.03
2022-12-03T14:25:11.262Z,100927.41
2022-12-03T14:27:37.870Z,100912.88
2022-12-03T14:30:05.716Z,100929.84
2022-12-03T14:32:32.562Z,100932.69
2022-12-03T14:35:05.294Z,100938.78
2022-12-03T14:37:34.883Z,100925.47
2022-12-03T14:40:01.482Z,100932.69
2022-12-03T14:42:28.075Z,100947.69
2022-12-03T14:45:09.986Z,100934.53
2022-12-03T14:47:36.810Z,100932.09
2022-12-03T14:50:05.269Z,100942.88
2022-12-03T14:52:31.934Z,100940.50
2022-12-03T14:54:58.679Z,100952.13
2022-12-03T14:57:25.450Z,100955.25
2022-12-03T14:59:52.495Z,100952.63
2022-12-03T15:02:19.629Z,100950.19
2022-12-03T15:04:46.399Z,100957.75
2022-12-03T15:07:13.173Z,100953.09
2022-12-03T15:09:39.867Z,100944.84
2022-12-03T15:12:06.967Z,100951.22
2022-12-03T15:14:33.766Z,100946.44
2022-12-03T15:17:00.588Z,100953.22
2022-12-03T15:19:27.427Z,100963.56
2022-12-03T15:21:54.177Z,100949.81
2022-12-03T15:24:20.853Z,100940.81
2022-12-03T15:26:47.662Z,100935.53
2022-12-03T15:29:14.223Z,100947.72
2022-12-03T15:31:40.943Z,100947.44
2022-12-03T15:34:07.610Z,100932.84
2022-12-03T15:36:34.178Z,100943.19
2022-12-03T15:39:00.806Z,100930.16
2022-12-03T15:41:30.401Z,100938.53
2022-12-03T15:43:59.253Z,100948.88
2022-12-03T15:46:27.823Z,100954.00
2022-12-03T15:48:55.677Z,100964.44
2022-12-03T15:51:22.359Z,100956.53
2022-12-03T15:53:49.140Z,100952.44
2022-12-03T15:56:16.225Z,100961.75
2022-12-03T15:58:42.878Z,100970.69
2022-12-03T16:01:10.019Z,100951.31
2022-12-03T16:03:36.980Z,100966.16
2022-12-03T16:06:03.730Z,100968.00
2022-12-03T16:08:30.391Z,100976.94
2022-12-03T16:10:57.197Z,100968.16
2022-12-03T16:13:23.767Z,100959.22
2022-12-03T16:15:50.871Z,100965.03
2022-12-03T16:18:17.658Z,100961.91
2022-12-03T16:20:44.285Z,100965.31
2022-12-03T16:23:10.897Z,100969.56
2022-12-03T16:25:37.607Z,100963.47
2022-12-03T16:28:04.391Z,100957.38
2022-12-03T16:30:31.070Z,100969.97
2022-12-03T16:32:57.643Z,100968.28
2022-12-03T16:35:24.195Z,100969.84
2022-12-03T16:37:50.745Z,100967.16
2022-12-03T16:40:17.551Z,100960.34
2022-12-03T16:42:44.230Z,100976.50
2022-12-03T16:45:11.369Z,100987.81
2022-12-03T16:47:38.242Z,100976.66
2022-12-03T16:50:11.574Z,100966.75
2022-12-03T16:52:41.069Z,100980.03
2022-12-03T16:55:08.070Z,100978.34
2022-12-03T16:57:34.706Z,100981.19
2022-12-03T17:00:01.356Z,100983.16
2022-12-03T17:02:28.099Z,100977.94
2022-12-03T17:04:54.985Z,100971.53
2022-12-03T17:07:21.716Z,100985.00
2022-12-03T17:09:48.426Z,100974.69
2022-12-03T17:12:15.061Z,100974.69
2022-12-03T17:14:41.715Z,100983.75
2022-12-03T17:17:08.405Z,100974.97
2022-12-03T17:19:35.121Z,100976.94
2022-12-03T17:22:01.743Z,100971.28
2022-12-03T17:24:28.328Z,100977.25
2022-12-03T17:26:54.902Z,100962.50
2022-12-03T17:29:21.461Z,100966.22
2022-12-03T17:31:48.197Z,100967.78
2022-12-03T17:34:15.107Z,100974.28
2022-12-03T17:36:41.782Z,100972.72
2022-12-03T17:39:08.492Z,100966.34
2022-12-03T17:41:35.091Z,100974.44
2022-12-03T17:44:06.005Z,100980.63
2022-12-03T17:46:35.709Z,100976.41
2022-12-03T17:49:02.315Z,100977.81
2022-12-03T17:51:28.861Z,100976.41
2022-12-03T17:53:55.427Z,100957.72
2022-12-03T17:56:22.054Z,100973.72
2022-12-03T17:58:48.623Z,100961.41
2022-12-03T18:01:15.161Z,100972.72
2022-12-03T18:03:41.781Z,100957.84
2022-12-03T18:06:08.682Z,100953.47
2022-12-03T18:08:35.358Z,100963.38
2022-12-03T18:11:01.932Z,100961.56
2022-12-03T18:13:28.599Z,100954.47
2022-12-03T18:15:55.294Z,100962.53
2022-12-03T18:18:22.090Z,100955.47
2022-12-03T18:20:48.748Z,100959.13
2022-12-03T18:23:15.443Z,100951.50
2022-12-03T18:25:42.617Z,100956.88
2022-12-03T18:28:09.227Z,100950.94
2022-12-03T18:30:35.959Z,100942.31
2022-12-03T18:33:02.699Z,100935.53
2022-12-03T18:35:29.293Z,100946.25
2022-12-03T18:37:56.004Z,100944.00
2022-12-03T18:40:24.416Z,100940.03
2022-12-03T18:42:51.078Z,100943.97
2022-12-03T18:45:17.755Z,100940.28
2022-12-03T18:47:44.679Z,100932.22
2022-12-03T18:50:12.490Z,100939.84
2022-12-03T18:52:39.457Z,100935.03
2022-12-03T18:55:07.046Z,100934.91
2022-12-03T18:57:33.787Z,100923.88
2022-12-03T19:00:00.509Z,100932.34
2022-12-03T19:02:54.289Z,100935.59
2022-12-03T19:05:13.737Z,100941.50
2022-12-03T19:07:40.402Z,100938.44
2022-12-03T19:10:08.013Z,100930.59
2022-12-03T19:12:34.641Z,100944.63
2022-12-03T19:15:01.810Z,100932.16
2022-12-03T19:17:28.427Z,100923.69
2022-12-03T19:19:55.613Z,100934.69
2022-12-03T19:22:22.959Z,100938.25
2022-12-03T19:24:49.943Z,100940.22
2022-12-03T19:27:16.567Z,100935.97
2022-12-03T19:29:43.303Z,100949.44
2022-12-03T19:32:09.945Z,100938.97
2022-12-03T19:34:36.584Z,100942.09
2022-12-03T19:37:03.208Z,100941.81
2022-12-03T19:39:29.793Z,100942.94
2022-12-03T19:41:56.393Z,100931.75
2022-12-03T19:44:22.973Z,100934.59
2022-12-03T19:46:50.331Z,100943.81
2022-12-03T19:49:21.064Z,100940.41
2022-12-03T19:51:48.086Z,100942.84
2022-12-03T19:54:15.241Z,100950.34
2022-12-03T19:56:41.924Z,100940.75
2022-12-03T19:59:10.944Z,100936.91
2022-12-03T20:01:40.726Z,100952.63
2022-12-03T20:04:08.197Z,100966.66
2022-12-03T20:06:37.776Z,100950.78
2022-12-03T20:09:11.433Z,100936.78
2022-12-03T20:11:39.942Z,100937.34
2022-12-03T20:14:10.521Z,100939.88
2022-12-03T20:16:37.363Z,100937.06
2022-12-03T20:19:08.120Z,100932.38
2022-12-03T20:21:36.742Z,100944.84
2022-12-03T20:24:04.714Z,100949.09
2022-12-03T20:26:31.348Z,100943.00
2022-12-03T20:28:58.083Z,100961.25
2022-12-03T20:31:27.933Z,100954.75
2022-12-03T20:33:57.174Z,100953.06
2022-12-03T20:36:24.737Z,100941.63
2022-12-03T20:38:55.954Z,100948.13
2022-12-03T20:41:23.015Z,100938.75
2022-12-03T20:43:50.141Z,100938.19
2022-12-03T20:46:28.761Z,100934.66
2022-12-03T20:48:55.874Z,100941.44
2022-12-03T20:51:25.059Z,100925.31
2022-12-03T20:53:52.133Z,100923.22
2022-12-03T20:56:31.513Z,100918.13
2022-12-03T20:59:05.008Z,100918.94
2022-12-03T21:01:32.470Z,100912.03
2022-12-03T21:03:59.204Z,100911.88
2022-12-03T21:06:28.239Z,100910.06
2022-12-03T21:08:56.352Z,100906.50
2022-12-03T21:11:25.280Z,100900.28
2022-12-03T21:13:52.253Z,100907.78
2022-12-03T21:16:45.704Z,100895.34
2022-12-03T21:19:10.083Z,100873.97
2022-12-03T21:21:36.695Z,100908.31
2022-12-03T21:24:03.454Z,100891.63
2022-12-03T21:26:30.110Z,100893.03
2022-12-03T21:28:56.749Z,100909.31
2022-12-03T21:31:25.866Z,100901.09
2022-12-03T21:33:54.789Z,100905.66
2022-12-03T21:36:21.603Z,100891.88
2022-12-03T21:38:48.641Z,100897.97
2022-12-03T21:41:16.051Z,100896.28
2022-12-03T21:43:43.597Z,100881.56
2022-12-03T21:47:12.204Z,100891.31
2022-12-03T21:49:01.012Z,100895.72
2022-12-03T21:51:27.641Z,100883.25
2022-12-03T21:53:54.287Z,100891.31
2022-12-03T21:56:20.927Z,100885.94
2022-12-03T21:58:47.842Z,100899.09
2022-12-03T22:01:18.514Z,100901.09
2022-12-03T22:03:46.104Z,100899.22
2022-12-03T22:06:13.341Z,100891.31
2022-12-03T22:08:40.494Z,100895.72
2022-12-03T22:11:09.676Z,100895.72
2022-12-03T22:13:38.569Z,100902.06
2022-12-03T22:16:06.265Z,100899.22
2022-12-03T22:18:33.178Z,100893.03
2022-12-03T22:21:04.486Z,100890.03
2022-12-03T22:23:31.607Z,100899.09
2022-12-03T22:26:03.492Z,100891.16
2022-12-03T22:28:30.124Z,100888.63
2022-12-03T22:30:56.934Z,100879.84
2022-12-03T22:33:24.058Z,100893.72
2022-12-03T22:36:02.210Z,100891.59
2022-12-03T22:38:30.438Z,100904.88
2022-12-03T22:40:57.612Z,100916.50
2022-12-03T22:43:24.880Z,100914.66
2022-12-03T22:45:55.808Z,100910.25
2022-12-03T22:48:23.989Z,100910.09
2022-12-03T22:50:51.873Z,100908.81
2022-12-03T22:53:20.436Z,100898.06
2022-12-03T22:55:56.093Z,100909.53
2022-12-03T22:58:22.937Z,100906.72
2022-12-03T23:00:50.001Z,100895.09
2022-12-03T23:03:16.837Z,100897.94
2022-12-03T23:05:43.518Z,100888.47
2022-12-03T23:08:14.350Z,100889.16
2022-12-03T23:10:43.548Z,100874.84
2022-12-03T23:13:11.025Z,100863.66
2022-12-03T23:15:38.196Z,100847.41
2022-12-03T23:18:04.927Z,100845.53
2022-12-03T23:20:31.580Z,100850.66
2022-12-03T23:22:58.186Z,100833.94
2022-12-03T23:25:24.790Z,100836.50
2022-12-03T23:27:51.372Z,100825.72
2022-12-03T23:30:18.126Z,100826.44
2022-12-03T23:32:44.781Z,100825.28
2022-12-03T23:35:12.453Z,100844.25
2022-12-03T23:37:39.432Z,100847.78
2022-12-03T23:40:06.862Z,100824.59
2022-12-03T23:42:33.498Z,100826.69
2022-12-03T23:45:00.141Z,100806.84
2022-12-03T23:47:26.702Z,100812.22
2022-12-03T23:49:53.708Z,100802.47
2022-12-03T23:52:20.402Z,100807.00
2022-12-03T23:54:47.070Z,100814.22
2022-12-03T23:57:13.662Z,100819.75
2022-12-03T23:59:42.244Z,100800.59
